sensor_id;sensor_type;location;lat;lon;timestamp;P1;durP1;ratioP1;P2;durP2;ratioP2
43817;SDS011;29868;47.360;18.984;2024-02-23T08:41:28;6.13;;;4.13;;
43817;SDS011;29868;47.360;18.984;2024-02-23T08:43:53;7.28;;;3.75;;
43817;SDS011;29868;47.360;18.984;2024-02-23T08:46:20;7.78;;;3.85;;
43817;SDS011;29868;47.360;18.984;2024-02-23T08:48:46;6.80;;;3.70;;
43817;SDS011;29868;47.360;18.984;2024-02-23T08:51:12;5.43;;;3.30;;
43817;SDS011;29868;47.360;18.984;2024-02-23T08:53:37;7.78;;;3.70;;
43817;SDS011;29868;47.360;18.984;2024-02-23T08:56:03;5.28;;;3.40;;
43817;SDS011;29868;47.360;18.984;2024-02-23T08:58:29;5.40;;;3.45;;
43817;SDS011;29868;47.360;18.984;2024-02-23T09:00:55;6.00;;;3.70;;
43817;SDS011;29868;47.360;18.984;2024-02-23T09:03:20;5.78;;;3.78;;
43817;SDS011;29868;47.360;18.984;2024-02-23T09:05:46;4.90;;;3.50;;
43817;SDS011;29868;47.360;18.984;2024-02-23T09:08:13;5.22;;;3.40;;
43817;SDS011;29868;47.360;18.984;2024-02-23T09:10:38;6.07;;;3.70;;
43817;SDS011;29868;47.360;18.984;2024-02-23T09:13:04;6.28;;;3.97;;
43817;SDS011;29868;47.360;18.984;2024-02-23T09:15:29;7.78;;;4.03;;
43817;SDS011;29868;47.360;18.984;2024-02-23T09:17:55;7.47;;;4.50;;
43817;SDS011;29868;47.360;18.984;2024-02-23T09:20:20;8.35;;;5.07;;
43817;SDS011;29868;47.360;18.984;2024-02-23T09:22:46;6.80;;;4.40;;
43817;SDS011;29868;47.360;18.984;2024-02-23T09:25:12;8.70;;;4.40;;
43817;SDS011;29868;47.360;18.984;2024-02-23T09:27:37;7.20;;;4.05;;
43817;SDS011;29868;47.360;18.984;2024-02-23T09:30:08;8.20;;;4.22;;
43817;SDS011;29868;47.360;18.984;2024-02-23T09:32:37;7.75;;;3.80;;
43817;SDS011;29868;47.360;18.984;2024-02-23T09:35:03;7.32;;;3.92;;
43817;SDS011;29868;47.360;18.984;2024-02-23T09:37:28;6.07;;;3.38;;
43817;SDS011;29868;47.360;18.984;2024-02-23T09:39:54;4.65;;;2.90;;
43817;SDS011;29868;47.360;18.984;2024-02-23T09:42:19;5.15;;;2.80;;
43817;SDS011;29868;47.360;18.984;2024-02-23T09:44:57;6.18;;;3.35;;
43817;SDS011;29868;47.360;18.984;2024-02-23T09:47:27;8.07;;;3.60;;
43817;SDS011;29868;47.360;18.984;2024-02-23T09:49:53;7.53;;;3.25;;
43817;SDS011;29868;47.360;18.984;2024-02-23T09:52:19;5.05;;;3.10;;
43817;SDS011;29868;47.360;18.984;2024-02-23T09:54:45;5.28;;;2.60;;
43817;SDS011;29868;47.360;18.984;2024-02-23T09:57:11;5.10;;;2.30;;
43817;SDS011;29868;47.360;18.984;2024-02-23T09:59:36;5.00;;;2.60;;
43817;SDS011;29868;47.360;18.984;2024-02-23T10:02:23;4.60;;;2.78;;
43817;SDS011;29868;47.360;18.984;2024-02-23T10:04:48;6.22;;;3.10;;
43817;SDS011;29868;47.360;18.984;2024-02-23T10:07:16;6.78;;;3.03;;
43817;SDS011;29868;47.360;18.984;2024-02-23T10:09:42;5.35;;;2.75;;
43817;SDS011;29868;47.360;18.984;2024-02-23T10:12:07;4.82;;;2.50;;
43817;SDS011;29868;47.360;18.984;2024-02-23T10:14:33;5.55;;;2.38;;
43817;SDS011;29868;47.360;18.984;2024-02-23T10:16:58;4.07;;;2.33;;
43817;SDS011;29868;47.360;18.984;2024-02-23T10:19:24;4.18;;;2.50;;
43817;SDS011;29868;47.360;18.984;2024-02-23T10:21:54;4.43;;;2.13;;
43817;SDS011;29868;47.360;18.984;2024-02-23T10:24:19;4.05;;;2.38;;
43817;SDS011;29868;47.360;18.984;2024-02-23T10:26:45;3.50;;;2.13;;
43817;SDS011;29868;47.360;18.984;2024-02-23T10:29:10;4.18;;;2.22;;
43817;SDS011;29868;47.360;18.984;2024-02-23T10:31:36;4.07;;;2.00;;
43817;SDS011;29868;47.360;18.984;2024-02-23T10:34:07;3.13;;;2.00;;
43817;SDS011;29868;47.360;18.984;2024-02-23T10:36:36;4.50;;;2.95;;
43817;SDS011;29868;47.360;18.984;2024-02-23T10:39:07;4.25;;;2.40;;
43817;SDS011;29868;47.360;18.984;2024-02-23T10:41:37;2.47;;;1.90;;
43817;SDS011;29868;47.360;18.984;2024-02-23T10:44:08;4.05;;;2.28;;
43817;SDS011;29868;47.360;18.984;2024-02-23T10:46:35;3.42;;;2.03;;
43817;SDS011;29868;47.360;18.984;2024-02-23T10:49:01;4.97;;;2.15;;
43817;SDS011;29868;47.360;18.984;2024-02-23T10:51:28;3.42;;;2.08;;
43817;SDS011;29868;47.360;18.984;2024-02-23T10:53:54;3.15;;;1.90;;
43817;SDS011;29868;47.360;18.984;2024-02-23T10:56:20;2.90;;;1.80;;
43817;SDS011;29868;47.360;18.984;2024-02-23T10:58:47;5.43;;;3.30;;
43817;SDS011;29868;47.360;18.984;2024-02-23T11:01:13;4.38;;;2.65;;
43817;SDS011;29868;47.360;18.984;2024-02-23T11:03:41;3.78;;;2.65;;
43817;SDS011;29868;47.360;18.984;2024-02-23T11:06:09;3.67;;;2.20;;
43817;SDS011;29868;47.360;18.984;2024-02-23T11:08:35;5.88;;;2.50;;
43817;SDS011;29868;47.360;18.984;2024-02-23T11:11:07;4.57;;;2.40;;
43817;SDS011;29868;47.360;18.984;2024-02-23T11:13:34;3.47;;;2.10;;
43817;SDS011;29868;47.360;18.984;2024-02-23T11:16:02;3.13;;;2.03;;
43817;SDS011;29868;47.360;18.984;2024-02-23T11:18:28;2.72;;;1.70;;
43817;SDS011;29868;47.360;18.984;2024-02-23T11:20:55;3.28;;;2.20;;
43817;SDS011;29868;47.360;18.984;2024-02-23T11:23:22;3.50;;;2.15;;
43817;SDS011;29868;47.360;18.984;2024-02-23T11:28:29;4.10;;;2.45;;
43817;SDS011;29868;47.360;18.984;2024-02-23T11:30:54;3.67;;;2.40;;
43817;SDS011;29868;47.360;18.984;2024-02-23T11:33:26;4.00;;;2.15;;
43817;SDS011;29868;47.360;18.984;2024-02-23T11:35:52;3.63;;;2.25;;
43817;SDS011;29868;47.360;18.984;2024-02-23T11:38:17;3.40;;;2.13;;
43817;SDS011;29868;47.360;18.984;2024-02-23T11:40:46;4.97;;;2.70;;
43817;SDS011;29868;47.360;18.984;2024-02-23T11:43:13;5.22;;;2.95;;
43817;SDS011;29868;47.360;18.984;2024-02-23T11:45:39;4.95;;;3.20;;
43817;SDS011;29868;47.360;18.984;2024-02-23T11:48:06;5.00;;;3.25;;
43817;SDS011;29868;47.360;18.984;2024-02-23T11:50:32;5.28;;;3.20;;
43817;SDS011;29868;47.360;18.984;2024-02-23T11:52:58;6.28;;;3.10;;
43817;SDS011;29868;47.360;18.984;2024-02-23T11:55:26;5.85;;;3.20;;
43817;SDS011;29868;47.360;18.984;2024-02-23T11:57:51;5.22;;;3.45;;
43817;SDS011;29868;47.360;18.984;2024-02-23T12:00:17;5.03;;;3.53;;
43817;SDS011;29868;47.360;18.984;2024-02-23T12:02:43;5.35;;;3.50;;
43817;SDS011;29868;47.360;18.984;2024-02-23T12:05:14;7.13;;;3.40;;
43817;SDS011;29868;47.360;18.984;2024-02-23T12:07:40;5.20;;;3.08;;
43817;SDS011;29868;47.360;18.984;2024-02-23T12:10:06;5.07;;;3.42;;
43817;SDS011;29868;47.360;18.984;2024-02-23T12:12:32;6.07;;;3.80;;
43817;SDS011;29868;47.360;18.984;2024-02-23T12:14:58;5.25;;;3.90;;
43817;SDS011;29868;47.360;18.984;2024-02-23T12:17:24;7.13;;;5.55;;
43817;SDS011;29868;47.360;18.984;2024-02-23T12:19:57;6.20;;;4.22;;
43817;SDS011;29868;47.360;18.984;2024-02-23T12:22:24;5.57;;;4.30;;
43817;SDS011;29868;47.360;18.984;2024-02-23T12:24:50;6.30;;;4.57;;
43817;SDS011;29868;47.360;18.984;2024-02-23T12:27:19;6.97;;;4.45;;
43817;SDS011;29868;47.360;18.984;2024-02-23T12:29:52;6.90;;;3.80;;
43817;SDS011;29868;47.360;18.984;2024-02-23T12:32:19;7.88;;;4.20;;
43817;SDS011;29868;47.360;18.984;2024-02-23T12:34:46;6.13;;;4.00;;
43817;SDS011;29868;47.360;18.984;2024-02-23T12:37:14;6.10;;;4.20;;
43817;SDS011;29868;47.360;18.984;2024-02-23T12:39:41;7.95;;;5.93;;
43817;SDS011;29868;47.360;18.984;2024-02-23T12:42:07;10.57;;;6.15;;
43817;SDS011;29868;47.360;18.984;2024-02-23T12:44:32;9.68;;;6.28;;
43817;SDS011;29868;47.360;18.984;2024-02-23T12:46:58;9.02;;;6.30;;
43817;SDS011;29868;47.360;18.984;2024-02-23T12:49:23;9.55;;;5.88;;
43817;SDS011;29868;47.360;18.984;2024-02-23T12:51:49;9.38;;;6.00;;
43817;SDS011;29868;47.360;18.984;2024-02-23T12:54:14;9.05;;;6.57;;
43817;SDS011;29868;47.360;18.984;2024-02-23T12:56:39;9.77;;;6.43;;
43817;SDS011;29868;47.360;18.984;2024-02-23T12:59:05;9.70;;;6.72;;
43817;SDS011;29868;47.360;18.984;2024-02-23T13:01:30;10.32;;;6.90;;
43817;SDS011;29868;47.360;18.984;2024-02-23T13:03:59;9.35;;;6.90;;
43817;SDS011;29868;47.360;18.984;2024-02-23T13:06:25;11.77;;;7.38;;
43817;SDS011;29868;47.360;18.984;2024-02-23T13:08:50;11.57;;;7.43;;
43817;SDS011;29868;47.360;18.984;2024-02-23T13:11:16;11.85;;;7.03;;
43817;SDS011;29868;47.360;18.984;2024-02-23T13:13:41;12.40;;;7.25;;
43817;SDS011;29868;47.360;18.984;2024-02-23T13:16:07;8.93;;;6.20;;
43817;SDS011;29868;47.360;18.984;2024-02-23T13:18:33;10.70;;;6.32;;
43817;SDS011;29868;47.360;18.984;2024-02-23T13:20:59;10.30;;;7.05;;
43817;SDS011;29868;47.360;18.984;2024-02-23T13:23:24;9.95;;;7.45;;
43817;SDS011;29868;47.360;18.984;2024-02-23T13:25:50;9.68;;;7.18;;
43817;SDS011;29868;47.360;18.984;2024-02-23T13:28:15;11.57;;;9.20;;
43817;SDS011;29868;47.360;18.984;2024-02-23T13:30:41;10.80;;;8.00;;
43817;SDS011;29868;47.360;18.984;2024-02-23T13:33:07;13.68;;;11.30;;
43817;SDS011;29868;47.360;18.984;2024-02-23T13:35:33;13.95;;;11.35;;
43817;SDS011;29868;47.360;18.984;2024-02-23T13:37:59;12.82;;;9.30;;
43817;SDS011;29868;47.360;18.984;2024-02-23T13:40:24;12.65;;;8.85;;
43817;SDS011;29868;47.360;18.984;2024-02-23T13:42:50;11.82;;;8.50;;
43817;SDS011;29868;47.360;18.984;2024-02-23T13:45:17;12.50;;;9.13;;
43817;SDS011;29868;47.360;18.984;2024-02-23T13:47:54;13.18;;;8.60;;
43817;SDS011;29868;47.360;18.984;2024-02-23T13:50:27;13.60;;;9.60;;
43817;SDS011;29868;47.360;18.984;2024-02-23T13:52:53;15.20;;;10.57;;
43817;SDS011;29868;47.360;18.984;2024-02-23T13:55:19;17.45;;;11.45;;
43817;SDS011;29868;47.360;18.984;2024-02-23T13:57:47;13.85;;;10.65;;
43817;SDS011;29868;47.360;18.984;2024-02-23T14:00:14;13.85;;;9.70;;
43817;SDS011;29868;47.360;18.984;2024-02-23T14:02:40;13.20;;;9.48;;
43817;SDS011;29868;47.360;18.984;2024-02-23T14:05:06;14.05;;;10.25;;
43817;SDS011;29868;47.360;18.984;2024-02-23T14:07:33;15.10;;;11.10;;
43817;SDS011;29868;47.360;18.984;2024-02-23T14:09:59;17.23;;;11.85;;
43817;SDS011;29868;47.360;18.984;2024-02-23T14:12:24;16.55;;;11.70;;
43817;SDS011;29868;47.360;18.984;2024-02-23T14:14:50;15.90;;;11.55;;
43817;SDS011;29868;47.360;18.984;2024-02-23T14:17:15;13.93;;;10.50;;
43817;SDS011;29868;47.360;18.984;2024-02-23T14:19:40;13.77;;;10.00;;
43817;SDS011;29868;47.360;18.984;2024-02-23T14:22:06;13.63;;;10.00;;
43817;SDS011;29868;47.360;18.984;2024-02-23T14:24:32;13.05;;;9.48;;
43817;SDS011;29868;47.360;18.984;2024-02-23T14:26:58;12.18;;;9.27;;
43817;SDS011;29868;47.360;18.984;2024-02-23T14:29:23;15.30;;;9.40;;
43817;SDS011;29868;47.360;18.984;2024-02-23T14:31:48;12.77;;;9.80;;
43817;SDS011;29868;47.360;18.984;2024-02-23T14:34:14;13.60;;;9.15;;
43817;SDS011;29868;47.360;18.984;2024-02-23T14:36:39;15.05;;;10.13;;
43817;SDS011;29868;47.360;18.984;2024-02-23T14:39:04;13.90;;;10.05;;
43817;SDS011;29868;47.360;18.984;2024-02-23T14:41:30;12.07;;;8.80;;
43817;SDS011;29868;47.360;18.984;2024-02-23T14:43:56;11.75;;;8.70;;
43817;SDS011;29868;47.360;18.984;2024-02-23T14:46:21;12.10;;;8.77;;
43817;SDS011;29868;47.360;18.984;2024-02-23T14:48:47;12.00;;;9.50;;
43817;SDS011;29868;47.360;18.984;2024-02-23T14:51:14;14.68;;;9.60;;
43817;SDS011;29868;47.360;18.984;2024-02-23T14:53:40;14.70;;;9.40;;
43817;SDS011;29868;47.360;18.984;2024-02-23T14:56:06;13.52;;;8.98;;
43817;SDS011;29868;47.360;18.984;2024-02-23T14:58:31;13.40;;;8.98;;
43817;SDS011;29868;47.360;18.984;2024-02-23T15:00:57;14.02;;;10.43;;
43817;SDS011;29868;47.360;18.984;2024-02-23T15:03:22;15.38;;;10.85;;
43817;SDS011;29868;47.360;18.984;2024-02-23T15:05:48;16.45;;;11.40;;
43817;SDS011;29868;47.360;18.984;2024-02-23T15:08:13;12.75;;;9.48;;
43817;SDS011;29868;47.360;18.984;2024-02-23T15:10:39;14.90;;;9.10;;
43817;SDS011;29868;47.360;18.984;2024-02-23T15:13:05;12.77;;;9.15;;
43817;SDS011;29868;47.360;18.984;2024-02-23T15:15:30;10.98;;;7.68;;
43817;SDS011;29868;47.360;18.984;2024-02-23T15:17:56;11.93;;;8.35;;
43817;SDS011;29868;47.360;18.984;2024-02-23T15:20:21;13.25;;;8.07;;
43817;SDS011;29868;47.360;18.984;2024-02-23T15:22:47;11.70;;;8.07;;
43817;SDS011;29868;47.360;18.984;2024-02-23T15:25:14;12.13;;;8.55;;
43817;SDS011;29868;47.360;18.984;2024-02-23T15:27:40;13.40;;;9.00;;
43817;SDS011;29868;47.360;18.984;2024-02-23T15:30:06;18.17;;;13.20;;
43817;SDS011;29868;47.360;18.984;2024-02-23T15:32:36;22.65;;;15.00;;
43817;SDS011;29868;47.360;18.984;2024-02-23T15:35:02;21.83;;;15.60;;
43817;SDS011;29868;47.360;18.984;2024-02-23T15:37:31;16.98;;;11.75;;
43817;SDS011;29868;47.360;18.984;2024-02-23T15:39:57;17.58;;;12.05;;
43817;SDS011;29868;47.360;18.984;2024-02-23T15:42:23;17.85;;;11.82;;
43817;SDS011;29868;47.360;18.984;2024-02-23T15:44:48;17.88;;;12.18;;
43817;SDS011;29868;47.360;18.984;2024-02-23T15:47:14;15.85;;;11.35;;
43817;SDS011;29868;47.360;18.984;2024-02-23T15:49:40;16.65;;;11.70;;
43817;SDS011;29868;47.360;18.984;2024-02-23T15:52:05;18.55;;;13.18;;
43817;SDS011;29868;47.360;18.984;2024-02-23T15:54:31;18.67;;;13.10;;
43817;SDS011;29868;47.360;18.984;2024-02-23T15:56:58;18.25;;;13.20;;
43817;SDS011;29868;47.360;18.984;2024-02-23T15:59:24;17.42;;;11.63;;
43817;SDS011;29868;47.360;18.984;2024-02-23T16:01:49;16.58;;;12.10;;
43817;SDS011;29868;47.360;18.984;2024-02-23T16:04:15;15.18;;;10.63;;
43817;SDS011;29868;47.360;18.984;2024-02-23T16:06:40;14.10;;;10.85;;
43817;SDS011;29868;47.360;18.984;2024-02-23T16:09:05;16.00;;;10.85;;
43817;SDS011;29868;47.360;18.984;2024-02-23T16:11:32;15.52;;;11.65;;
43817;SDS011;29868;47.360;18.984;2024-02-23T16:13:58;14.10;;;9.82;;
43817;SDS011;29868;47.360;18.984;2024-02-23T16:16:24;13.77;;;10.70;;
43817;SDS011;29868;47.360;18.984;2024-02-23T16:18:50;17.35;;;10.10;;
43817;SDS011;29868;47.360;18.984;2024-02-23T16:21:15;15.40;;;9.70;;
43817;SDS011;29868;47.360;18.984;2024-02-23T16:23:41;14.05;;;9.95;;
43817;SDS011;29868;47.360;18.984;2024-02-23T16:26:07;15.50;;;10.15;;
43817;SDS011;29868;47.360;18.984;2024-02-23T16:28:33;12.73;;;9.85;;
43817;SDS011;29868;47.360;18.984;2024-02-23T16:30:58;14.20;;;9.10;;
43817;SDS011;29868;47.360;18.984;2024-02-23T16:33:24;15.05;;;10.05;;
43817;SDS011;29868;47.360;18.984;2024-02-23T16:35:50;16.60;;;10.73;;
43817;SDS011;29868;47.360;18.984;2024-02-23T16:38:15;16.10;;;11.65;;
43817;SDS011;29868;47.360;18.984;2024-02-23T16:40:40;15.55;;;11.40;;
43817;SDS011;29868;47.360;18.984;2024-02-23T16:43:06;16.85;;;11.57;;
43817;SDS011;29868;47.360;18.984;2024-02-23T16:45:32;20.83;;;12.48;;
43817;SDS011;29868;47.360;18.984;2024-02-23T16:47:57;17.35;;;12.20;;
43817;SDS011;29868;47.360;18.984;2024-02-23T16:50:25;15.10;;;11.38;;
43817;SDS011;29868;47.360;18.984;2024-02-23T16:52:50;16.52;;;12.45;;
43817;SDS011;29868;47.360;18.984;2024-02-23T16:55:17;13.50;;;10.10;;
43817;SDS011;29868;47.360;18.984;2024-02-23T16:57:43;14.18;;;10.73;;
43817;SDS011;29868;47.360;18.984;2024-02-23T17:00:09;16.17;;;10.85;;
43817;SDS011;29868;47.360;18.984;2024-02-23T17:02:35;17.88;;;11.98;;
43817;SDS011;29868;47.360;18.984;2024-02-23T17:05:00;15.68;;;11.15;;
43817;SDS011;29868;47.360;18.984;2024-02-23T17:07:29;16.70;;;11.90;;
43817;SDS011;29868;47.360;18.984;2024-02-23T17:09:55;15.98;;;12.63;;
43817;SDS011;29868;47.360;18.984;2024-02-23T17:12:22;13.77;;;10.13;;
43817;SDS011;29868;47.360;18.984;2024-02-23T17:14:48;15.95;;;10.68;;
43817;SDS011;29868;47.360;18.984;2024-02-23T17:17:14;15.45;;;10.73;;
43817;SDS011;29868;47.360;18.984;2024-02-23T17:19:39;16.08;;;11.05;;
43817;SDS011;29868;47.360;18.984;2024-02-23T17:22:06;16.50;;;12.25;;
43817;SDS011;29868;47.360;18.984;2024-02-23T17:24:32;16.23;;;11.65;;
43817;SDS011;29868;47.360;18.984;2024-02-23T17:26:57;18.15;;;12.13;;
43817;SDS011;29868;47.360;18.984;2024-02-23T17:29:24;21.42;;;16.10;;
43817;SDS011;29868;47.360;18.984;2024-02-23T17:31:50;17.52;;;12.43;;
43817;SDS011;29868;47.360;18.984;2024-02-23T17:34:15;19.05;;;11.80;;
43817;SDS011;29868;47.360;18.984;2024-02-23T17:36:41;19.65;;;12.40;;
43817;SDS011;29868;47.360;18.984;2024-02-23T17:39:08;21.35;;;12.38;;
43817;SDS011;29868;47.360;18.984;2024-02-23T17:41:36;21.65;;;13.73;;
43817;SDS011;29868;47.360;18.984;2024-02-23T17:44:01;18.33;;;12.75;;
43817;SDS011;29868;47.360;18.984;2024-02-23T17:46:28;20.88;;;13.48;;
43817;SDS011;29868;47.360;18.984;2024-02-23T17:48:54;20.50;;;13.85;;
43817;SDS011;29868;47.360;18.984;2024-02-23T17:51:19;20.85;;;14.05;;
43817;SDS011;29868;47.360;18.984;2024-02-23T17:53:45;21.40;;;13.93;;
43817;SDS011;29868;47.360;18.984;2024-02-23T17:56:10;36.70;;;21.23;;
43817;SDS011;29868;47.360;18.984;2024-02-23T17:58:36;32.97;;;25.50;;
43817;SDS011;29868;47.360;18.984;2024-02-23T18:01:02;24.67;;;17.67;;
43817;SDS011;29868;47.360;18.984;2024-02-23T18:03:28;22.48;;;16.58;;
43817;SDS011;29868;47.360;18.984;2024-02-23T18:05:53;26.48;;;17.38;;
43817;SDS011;29868;47.360;18.984;2024-02-23T18:08:19;23.73;;;16.75;;
43817;SDS011;29868;47.360;18.984;2024-02-23T18:10:44;18.73;;;13.68;;
43817;SDS011;29868;47.360;18.984;2024-02-23T18:13:10;21.40;;;15.88;;
43817;SDS011;29868;47.360;18.984;2024-02-23T18:15:37;20.17;;;15.20;;
43817;SDS011;29868;47.360;18.984;2024-02-23T18:18:03;19.27;;;13.90;;
43817;SDS011;29868;47.360;18.984;2024-02-23T18:20:28;19.00;;;14.88;;
43817;SDS011;29868;47.360;18.984;2024-02-23T18:22:54;19.45;;;14.70;;
43817;SDS011;29868;47.360;18.984;2024-02-23T18:25:20;18.83;;;14.38;;
43817;SDS011;29868;47.360;18.984;2024-02-23T18:27:46;20.00;;;13.70;;
43817;SDS011;29868;47.360;18.984;2024-02-23T18:30:12;19.15;;;13.93;;
43817;SDS011;29868;47.360;18.984;2024-02-23T18:32:38;19.60;;;14.82;;
43817;SDS011;29868;47.360;18.984;2024-02-23T18:35:03;19.95;;;14.38;;
43817;SDS011;29868;47.360;18.984;2024-02-23T18:37:29;19.23;;;13.75;;
43817;SDS011;29868;47.360;18.984;2024-02-23T18:39:55;17.85;;;13.30;;
43817;SDS011;29868;47.360;18.984;2024-02-23T18:42:21;18.83;;;14.18;;
43817;SDS011;29868;47.360;18.984;2024-02-23T18:44:46;20.45;;;13.98;;
43817;SDS011;29868;47.360;18.984;2024-02-23T18:47:13;21.13;;;13.15;;
43817;SDS011;29868;47.360;18.984;2024-02-23T18:49:38;18.30;;;13.32;;
43817;SDS011;29868;47.360;18.984;2024-02-23T18:52:04;17.67;;;13.45;;
43817;SDS011;29868;47.360;18.984;2024-02-23T18:54:32;18.20;;;13.20;;
43817;SDS011;29868;47.360;18.984;2024-02-23T18:56:58;16.30;;;12.32;;
43817;SDS011;29868;47.360;18.984;2024-02-23T18:59:24;18.35;;;13.68;;
43817;SDS011;29868;47.360;18.984;2024-02-23T19:01:49;20.33;;;14.23;;
43817;SDS011;29868;47.360;18.984;2024-02-23T19:04:15;19.92;;;15.02;;
43817;SDS011;29868;47.360;18.984;2024-02-23T19:06:40;18.88;;;13.57;;
43817;SDS011;29868;47.360;18.984;2024-02-23T19:09:06;17.83;;;13.00;;
43817;SDS011;29868;47.360;18.984;2024-02-23T19:11:32;17.65;;;12.68;;
43817;SDS011;29868;47.360;18.984;2024-02-23T19:13:57;18.10;;;12.85;;
43817;SDS011;29868;47.360;18.984;2024-02-23T19:16:23;19.15;;;13.00;;
43817;SDS011;29868;47.360;18.984;2024-02-23T19:18:48;17.00;;;12.80;;
43817;SDS011;29868;47.360;18.984;2024-02-23T19:21:15;15.65;;;10.98;;
43817;SDS011;29868;47.360;18.984;2024-02-23T19:23:41;14.50;;;10.88;;
43817;SDS011;29868;47.360;18.984;2024-02-23T19:26:08;17.75;;;11.27;;
43817;SDS011;29868;47.360;18.984;2024-02-23T19:28:34;16.25;;;11.90;;
43817;SDS011;29868;47.360;18.984;2024-02-23T19:30:59;19.23;;;12.90;;
43817;SDS011;29868;47.360;18.984;2024-02-23T19:33:25;17.60;;;13.18;;
43817;SDS011;29868;47.360;18.984;2024-02-23T19:35:51;16.23;;;11.40;;
43817;SDS011;29868;47.360;18.984;2024-02-23T19:38:17;15.13;;;10.88;;
43817;SDS011;29868;47.360;18.984;2024-02-23T19:40:43;13.73;;;10.95;;
43817;SDS011;29868;47.360;18.984;2024-02-23T19:43:08;16.02;;;11.07;;
43817;SDS011;29868;47.360;18.984;2024-02-23T19:45:33;16.20;;;12.60;;
43817;SDS011;29868;47.360;18.984;2024-02-23T19:47:59;14.65;;;10.13;;
43817;SDS011;29868;47.360;18.984;2024-02-23T19:50:24;13.88;;;10.05;;
43817;SDS011;29868;47.360;18.984;2024-02-23T19:52:50;14.40;;;10.30;;
43817;SDS011;29868;47.360;18.984;2024-02-23T19:55:15;17.65;;;12.75;;
43817;SDS011;29868;47.360;18.984;2024-02-23T19:57:41;19.00;;;12.85;;
43817;SDS011;29868;47.360;18.984;2024-02-23T20:00:06;14.35;;;10.43;;
43817;SDS011;29868;47.360;18.984;2024-02-23T20:02:32;13.98;;;10.80;;
43817;SDS011;29868;47.360;18.984;2024-02-23T20:04:57;15.48;;;10.30;;
43817;SDS011;29868;47.360;18.984;2024-02-23T20:07:23;16.33;;;10.63;;
43817;SDS011;29868;47.360;18.984;2024-02-23T20:09:48;15.40;;;10.60;;
43817;SDS011;29868;47.360;18.984;2024-02-23T20:12:14;14.07;;;10.60;;
43817;SDS011;29868;47.360;18.984;2024-02-23T20:14:39;18.02;;;11.90;;
43817;SDS011;29868;47.360;18.984;2024-02-23T20:17:05;16.75;;;11.70;;
43817;SDS011;29868;47.360;18.984;2024-02-23T20:19:30;16.45;;;10.88;;
43817;SDS011;29868;47.360;18.984;2024-02-23T20:21:56;17.33;;;12.35;;
43817;SDS011;29868;47.360;18.984;2024-02-23T20:24:22;17.13;;;12.30;;
43817;SDS011;29868;47.360;18.984;2024-02-23T20:26:48;17.60;;;12.23;;
43817;SDS011;29868;47.360;18.984;2024-02-23T20:29:14;16.23;;;12.40;;
43817;SDS011;29868;47.360;18.984;2024-02-23T20:31:40;17.50;;;12.77;;
43817;SDS011;29868;47.360;18.984;2024-02-23T20:34:07;17.42;;;12.20;;
43817;SDS011;29868;47.360;18.984;2024-02-23T20:36:33;13.90;;;11.10;;
43817;SDS011;29868;47.360;18.984;2024-02-23T20:38:59;16.20;;;11.05;;
43817;SDS011;29868;47.360;18.984;2024-02-23T20:41:25;15.25;;;10.10;;
43817;SDS011;29868;47.360;18.984;2024-02-23T20:43:53;13.45;;;9.57;;
43817;SDS011;29868;47.360;18.984;2024-02-23T20:46:21;13.38;;;9.77;;
43817;SDS011;29868;47.360;18.984;2024-02-23T20:48:48;15.93;;;9.13;;
43817;SDS011;29868;47.360;18.984;2024-02-23T20:51:14;12.65;;;9.63;;
43817;SDS011;29868;47.360;18.984;2024-02-23T20:53:39;13.68;;;9.48;;
43817;SDS011;29868;47.360;18.984;2024-02-23T20:56:05;13.35;;;9.05;;
43817;SDS011;29868;47.360;18.984;2024-02-23T20:58:31;12.70;;;8.77;;
43817;SDS011;29868;47.360;18.984;2024-02-23T21:00:56;12.70;;;8.40;;
43817;SDS011;29868;47.360;18.984;2024-02-23T21:03:22;12.52;;;7.45;;
43817;SDS011;29868;47.360;18.984;2024-02-23T21:05:47;10.50;;;7.10;;
43817;SDS011;29868;47.360;18.984;2024-02-23T21:08:13;10.40;;;6.78;;
43817;SDS011;29868;47.360;18.984;2024-02-23T21:10:41;9.48;;;6.68;;
43817;SDS011;29868;47.360;18.984;2024-02-23T21:13:07;10.32;;;6.65;;
43817;SDS011;29868;47.360;18.984;2024-02-23T21:15:32;9.50;;;6.78;;
43817;SDS011;29868;47.360;18.984;2024-02-23T21:17:58;10.75;;;7.40;;
43817;SDS011;29868;47.360;18.984;2024-02-23T21:20:24;10.32;;;6.97;;
43817;SDS011;29868;47.360;18.984;2024-02-23T21:22:49;10.60;;;6.53;;
43817;SDS011;29868;47.360;18.984;2024-02-23T21:25:15;22.38;;;11.88;;
43817;SDS011;29868;47.360;18.984;2024-02-23T21:27:40;28.48;;;14.57;;
43817;SDS011;29868;47.360;18.984;2024-02-23T21:30:06;14.02;;;8.75;;
43817;SDS011;29868;47.360;18.984;2024-02-23T21:32:32;12.80;;;8.25;;
43817;SDS011;29868;47.360;18.984;2024-02-23T21:34:58;12.60;;;7.70;;
43817;SDS011;29868;47.360;18.984;2024-02-23T21:37:23;21.83;;;11.85;;
43817;SDS011;29868;47.360;18.984;2024-02-23T21:39:49;42.70;;;19.63;;
43817;SDS011;29868;47.360;18.984;2024-02-23T21:42:16;49.90;;;22.60;;
43817;SDS011;29868;47.360;18.984;2024-02-23T21:44:42;18.83;;;10.80;;
43817;SDS011;29868;47.360;18.984;2024-02-23T21:47:07;12.80;;;7.97;;
43817;SDS011;29868;47.360;18.984;2024-02-23T21:49:33;13.43;;;7.43;;
43817;SDS011;29868;47.360;18.984;2024-02-23T21:51:58;10.90;;;6.38;;
43817;SDS011;29868;47.360;18.984;2024-02-23T21:54:28;11.00;;;6.90;;
43817;SDS011;29868;47.360;18.984;2024-02-23T21:56:54;10.50;;;7.00;;
43817;SDS011;29868;47.360;18.984;2024-02-23T21:59:20;9.07;;;6.47;;
43817;SDS011;29868;47.360;18.984;2024-02-23T22:01:45;9.80;;;6.50;;
43817;SDS011;29868;47.360;18.984;2024-02-23T22:04:11;8.77;;;6.10;;
43817;SDS011;29868;47.360;18.984;2024-02-23T22:06:37;9.93;;;7.10;;
43817;SDS011;29868;47.360;18.984;2024-02-23T22:09:02;10.05;;;6.63;;
43817;SDS011;29868;47.360;18.984;2024-02-23T22:11:27;9.18;;;6.50;;
43817;SDS011;29868;47.360;18.984;2024-02-23T22:13:53;10.63;;;6.20;;
43817;SDS011;29868;47.360;18.984;2024-02-23T22:16:18;10.13;;;7.15;;
43817;SDS011;29868;47.360;18.984;2024-02-23T22:18:44;12.82;;;7.18;;
43817;SDS011;29868;47.360;18.984;2024-02-23T22:21:09;9.80;;;6.47;;
43817;SDS011;29868;47.360;18.984;2024-02-23T22:23:36;10.68;;;7.38;;
43817;SDS011;29868;47.360;18.984;2024-02-23T22:26:01;10.35;;;7.20;;
43817;SDS011;29868;47.360;18.984;2024-02-23T22:28:27;10.25;;;7.40;;
43817;SDS011;29868;47.360;18.984;2024-02-23T22:30:53;12.88;;;7.47;;
43817;SDS011;29868;47.360;18.984;2024-02-23T22:33:18;9.65;;;6.68;;
43817;SDS011;29868;47.360;18.984;2024-02-23T22:35:44;10.95;;;6.65;;
43817;SDS011;29868;47.360;18.984;2024-02-23T22:38:09;9.98;;;7.05;;
43817;SDS011;29868;47.360;18.984;2024-02-23T22:40:34;9.13;;;6.50;;
43817;SDS011;29868;47.360;18.984;2024-02-23T22:43:01;9.93;;;6.70;;
43817;SDS011;29868;47.360;18.984;2024-02-23T22:45:26;8.65;;;6.25;;
43817;SDS011;29868;47.360;18.984;2024-02-23T22:47:52;10.45;;;6.35;;
43817;SDS011;29868;47.360;18.984;2024-02-23T22:50:17;9.27;;;6.07;;
43817;SDS011;29868;47.360;18.984;2024-02-23T22:52:43;9.90;;;6.40;;
43817;SDS011;29868;47.360;18.984;2024-02-23T22:55:10;9.93;;;6.30;;
43817;SDS011;29868;47.360;18.984;2024-02-23T22:57:35;9.02;;;6.28;;